createdAt,value
2019-03-19T00:01:46.463Z,2.65
2019-03-19T00:04:51.720Z,2.46
2019-03-19T00:07:57.087Z,2.57
2019-03-19T00:11:02.322Z,2.37
2019-03-19T00:14:07.605Z,2.16
2019-03-19T00:17:12.840Z,1.93
2019-03-19T00:20:18.073Z,1.87
2019-03-19T00:23:23.360Z,1.71
2019-03-19T00:26:28.651Z,1.78
2019-03-19T00:29:33.945Z,1.62
2019-03-19T00:32:39.209Z,1.76
2019-03-19T00:35:44.459Z,1.73
2019-03-19T00:38:49.725Z,1.96
2019-03-19T00:41:55.056Z,2.27
2019-03-19T00:45:00.416Z,2.44
2019-03-19T00:48:05.693Z,2.62
2019-03-19T00:51:11.011Z,2.32
2019-03-19T00:54:16.320Z,1.95
2019-03-19T00:57:21.591Z,1.98
2019-03-19T01:00:29.225Z,1.86
2019-03-19T01:03:34.421Z,1.88
2019-03-19T01:06:39.767Z,1.80
2019-03-19T01:09:45.005Z,1.87
2019-03-19T01:12:50.258Z,2.11
2019-03-19T01:15:58.026Z,2.05
2019-03-19T01:19:03.427Z,1.77
2019-03-19T01:22:08.693Z,1.75
2019-03-19T01:25:14.107Z,1.84
2019-03-19T01:28:19.512Z,1.63
2019-03-19T01:31:24.785Z,1.58
2019-03-19T01:34:30.016Z,1.80
2019-03-19T01:37:35.404Z,1.98
2019-03-19T01:40:40.675Z,1.94
2019-03-19T01:43:46.019Z,1.94
2019-03-19T01:46:51.309Z,1.90
2019-03-19T01:49:56.630Z,1.95
2019-03-19T01:53:04.332Z,2.42
2019-03-19T01:56:09.696Z,2.66
2019-03-19T01:59:17.316Z,2.74
2019-03-19T02:02:23.601Z,2.81
2019-03-19T02:05:28.906Z,2.85
2019-03-19T02:08:34.205Z,2.81
2019-03-19T02:11:39.505Z,2.99
2019-03-19T02:14:44.762Z,2.75
2019-03-19T02:17:50.076Z,2.79
2019-03-19T02:20:55.449Z,2.78
2019-03-19T02:24:00.754Z,2.66
2019-03-19T02:27:06.011Z,2.75
2019-03-19T02:30:11.820Z,2.82
2019-03-19T02:33:17.042Z,2.75
2019-03-19T02:36:22.326Z,2.64
2019-03-19T02:39:27.631Z,2.37
2019-03-19T02:42:32.949Z,2.32
2019-03-19T02:45:39.810Z,2.28
2019-03-19T02:48:45.111Z,2.15
2019-03-19T02:51:50.439Z,2.07
2019-03-19T02:54:55.776Z,2.01
2019-03-19T02:58:01.108Z,2.25
2019-03-19T03:01:06.390Z,2.29
2019-03-19T03:04:11.726Z,2.24
2019-03-19T03:07:16.991Z,1.97
2019-03-19T03:10:22.288Z,1.76
2019-03-19T03:13:27.589Z,1.61
2019-03-19T03:16:32.843Z,1.40
2019-03-19T03:19:38.201Z,1.42
2019-03-19T03:22:43.505Z,1.27
2019-03-19T03:25:48.796Z,1.23
2019-03-19T03:28:54.140Z,1.28
2019-03-19T03:31:59.429Z,1.43
2019-03-19T03:35:04.971Z,1.43
2019-03-19T03:38:10.378Z,1.40
2019-03-19T03:41:15.648Z,1.28
2019-03-19T03:44:20.976Z,1.40
2019-03-19T03:47:26.227Z,1.35
2019-03-19T03:50:31.479Z,1.27
2019-03-19T03:53:38.467Z,1.32
2019-03-19T03:57:00.869Z,1.38
2019-03-19T03:59:54.026Z,1.43
2019-03-19T04:02:59.372Z,1.49
2019-03-19T04:06:04.688Z,1.37
2019-03-19T04:09:09.979Z,1.32
2019-03-19T04:12:15.267Z,1.26
2019-03-19T04:15:20.610Z,1.31
2019-03-19T04:18:25.879Z,1.27
2019-03-19T04:21:31.228Z,1.14
2019-03-19T04:24:36.545Z,1.29
2019-03-19T04:27:41.841Z,1.32
2019-03-19T04:30:47.162Z,1.28
2019-03-19T04:33:52.424Z,1.37
2019-03-19T04:36:57.675Z,1.32
2019-03-19T04:40:03.097Z,1.20
2019-03-19T04:43:08.386Z,1.22
2019-03-19T04:46:13.693Z,1.03
2019-03-19T04:49:18.990Z,1.07
2019-03-19T04:52:24.259Z,0.98
2019-03-19T04:55:29.575Z,1.03
2019-03-19T04:58:34.838Z,0.97
2019-03-19T05:01:40.243Z,0.96
2019-03-19T05:04:45.489Z,1.08
2019-03-19T05:07:50.819Z,0.95
2019-03-19T05:10:56.110Z,0.97
2019-03-19T05:14:01.398Z,1.05
2019-03-19T05:17:06.671Z,1.08
2019-03-19T05:20:12.145Z,1.19
2019-03-19T05:23:17.473Z,1.12
2019-03-19T05:26:22.768Z,0.94
2019-03-19T05:29:28.068Z,1.22
2019-03-19T05:32:33.363Z,1.01
2019-03-19T05:35:38.623Z,1.05
2019-03-19T05:38:43.926Z,1.05
2019-03-19T05:41:49.278Z,1.08
2019-03-19T05:44:54.783Z,1.29
2019-03-19T05:48:07.279Z,1.34
2019-03-19T05:51:12.819Z,1.48
2019-03-19T05:54:21.544Z,1.54
2019-03-19T05:57:26.839Z,1.61
2019-03-19T06:00:32.950Z,2.08
2019-03-19T06:03:38.290Z,2.31
2019-03-19T06:06:45.577Z,2.54
2019-03-19T06:09:50.655Z,2.81
2019-03-19T06:12:55.915Z,2.99
2019-03-19T06:16:01.260Z,3.28
2019-03-19T06:19:06.517Z,3.63
2019-03-19T06:22:11.863Z,3.62
2019-03-19T06:25:17.229Z,3.38
2019-03-19T06:28:23.903Z,3.24
2019-03-19T06:31:29.163Z,3.04
2019-03-19T06:34:36.053Z,3.32
2019-03-19T06:37:41.494Z,3.48
2019-03-19T06:40:46.793Z,3.54
2019-03-19T06:43:52.083Z,3.98
2019-03-19T06:46:57.294Z,3.71
2019-03-19T06:50:02.603Z,3.49
2019-03-19T06:53:07.913Z,3.16
2019-03-19T06:56:14.876Z,3.15
2019-03-19T06:59:21.452Z,3.08
2019-03-19T07:02:26.780Z,3.25
2019-03-19T07:05:32.048Z,3.16
2019-03-19T07:08:37.318Z,3.20
2019-03-19T07:11:44.058Z,3.44
2019-03-19T07:14:49.390Z,3.49
2019-03-19T07:17:54.650Z,3.40
2019-03-19T07:21:02.284Z,3.31
2019-03-19T07:24:07.574Z,3.45
2019-03-19T07:27:12.969Z,3.56
2019-03-19T07:30:18.520Z,3.59
2019-03-19T07:33:23.812Z,3.65
2019-03-19T07:36:29.071Z,3.50
2019-03-19T07:39:35.299Z,3.84
2019-03-19T07:42:40.579Z,3.97
2019-03-19T07:45:45.937Z,4.01
2019-03-19T07:48:51.268Z,4.21
2019-03-19T07:51:56.498Z,4.57
2019-03-19T07:55:02.718Z,4.32
2019-03-19T07:58:08.215Z,4.30
2019-03-19T08:01:13.477Z,4.46
2019-03-19T08:04:18.763Z,4.44
2019-03-19T08:07:24.048Z,4.39
2019-03-19T08:10:29.354Z,4.81
2019-03-19T08:13:34.848Z,5.24
2019-03-19T08:16:40.140Z,5.20
2019-03-19T08:19:45.458Z,5.12
2019-03-19T08:22:52.328Z,5.25
2019-03-19T08:25:57.878Z,5.19
2019-03-19T08:29:03.193Z,5.30
2019-03-19T08:32:09.622Z,5.65
2019-03-19T08:35:14.903Z,5.52
2019-03-19T08:38:20.233Z,5.62
2019-03-19T08:41:25.535Z,5.51
2019-03-19T08:44:30.864Z,5.30
2019-03-19T08:47:38.425Z,5.55
2019-03-19T08:50:43.513Z,5.89
2019-03-19T08:53:48.769Z,6.13
2019-03-19T08:56:54.032Z,6.12
2019-03-19T08:59:59.303Z,6.35
2019-03-19T09:03:04.547Z,6.54
2019-03-19T09:06:09.819Z,6.87
2019-03-19T09:09:16.081Z,7.13
2019-03-19T09:12:21.379Z,7.38
2019-03-19T09:15:26.738Z,7.75
2019-03-19T09:18:31.997Z,7.79
2019-03-19T09:21:37.334Z,7.42
2019-03-19T09:24:42.614Z,7.14
2019-03-19T09:27:47.973Z,6.87
2019-03-19T09:30:54.948Z,6.89
2019-03-19T09:34:00.304Z,6.72
2019-03-19T09:37:05.694Z,7.02
2019-03-19T09:40:12.402Z,6.86
2019-03-19T09:43:18.633Z,7.28
2019-03-19T09:46:23.882Z,6.96
2019-03-19T09:49:29.131Z,6.94
2019-03-19T09:52:34.508Z,6.97
2019-03-19T09:55:39.746Z,7.07
2019-03-19T09:58:44.997Z,7.19
2019-03-19T10:01:50.257Z,7.37
2019-03-19T10:04:56.585Z,7.25
2019-03-19T10:08:01.910Z,7.00
2019-03-19T10:11:07.203Z,7.18
2019-03-19T10:14:12.461Z,7.45
2019-03-19T10:17:17.874Z,7.41
2019-03-19T10:20:24.703Z,7.32
2019-03-19T10:23:30.205Z,7.10
2019-03-19T10:26:35.500Z,6.99
2019-03-19T10:29:40.923Z,7.02
2019-03-19T10:32:46.219Z,7.03
2019-03-19T10:35:51.498Z,6.82
2019-03-19T10:38:56.807Z,6.95
2019-03-19T10:42:02.152Z,7.26
2019-03-19T10:45:08.098Z,7.00
2019-03-19T10:48:13.352Z,6.65
2019-03-19T10:51:18.653Z,6.75
2019-03-19T10:54:24.082Z,6.74
2019-03-19T10:57:29.394Z,7.54
2019-03-19T11:00:34.683Z,7.94
2019-03-19T11:03:41.019Z,8.15
2019-03-19T11:06:46.316Z,8.48
2019-03-19T11:09:51.582Z,8.93
2019-03-19T11:12:56.937Z,9.06
2019-03-19T11:16:02.306Z,8.79
2019-03-19T11:19:07.533Z,8.44
2019-03-19T11:22:12.838Z,8.41
2019-03-19T11:25:18.199Z,8.05
2019-03-19T11:28:23.536Z,8.29
2019-03-19T11:31:28.942Z,8.47
2019-03-19T11:34:34.322Z,8.60
2019-03-19T11:37:39.571Z,8.52
2019-03-19T11:40:44.961Z,8.68
2019-03-19T11:43:50.311Z,8.44
2019-03-19T11:46:55.563Z,8.35
2019-03-19T11:50:00.842Z,8.47
2019-03-19T11:53:06.411Z,8.57
2019-03-19T11:56:11.636Z,8.48
2019-03-19T11:59:16.947Z,8.47
2019-03-19T12:02:26.308Z,8.44
2019-03-19T12:05:29.367Z,8.59
2019-03-19T12:08:34.678Z,8.59
2019-03-19T12:11:40.048Z,8.67
2019-03-19T12:14:47.206Z,8.33
2019-03-19T12:17:52.377Z,8.09
2019-03-19T12:20:57.796Z,8.36
2019-03-19T12:24:04.721Z,8.42
2019-03-19T12:27:12.758Z,8.39
2019-03-19T12:30:22.547Z,8.73
2019-03-19T12:33:26.470Z,8.76
2019-03-19T12:36:31.782Z,8.76
2019-03-19T12:39:37.232Z,8.67
2019-03-19T12:42:42.642Z,8.78
2019-03-19T12:45:47.976Z,8.82
2019-03-19T12:48:54.351Z,8.35
2019-03-19T12:51:59.788Z,8.42
2019-03-19T12:55:06.196Z,8.78
2019-03-19T12:58:12.492Z,8.95
2019-03-19T13:01:17.820Z,9.30
2019-03-19T13:04:23.165Z,9.52
2019-03-19T13:07:29.597Z,10.07
2019-03-19T13:10:34.889Z,9.77
2019-03-19T13:13:42.679Z,9.83
2019-03-19T13:16:48.022Z,9.57
2019-03-19T13:19:53.334Z,9.15
2019-03-19T13:23:01.051Z,9.07
2019-03-19T13:26:06.396Z,8.78
2019-03-19T13:29:11.718Z,8.80
2019-03-19T13:32:16.958Z,9.17
2019-03-19T13:35:22.217Z,9.03
2019-03-19T13:38:30.513Z,9.12
2019-03-19T13:41:35.780Z,8.83
2019-03-19T13:44:41.038Z,8.59
2019-03-19T13:47:47.252Z,8.65
2019-03-19T13:50:52.765Z,8.55
2019-03-19T13:54:00.378Z,8.61
2019-03-19T13:57:05.883Z,8.68
2019-03-19T14:00:15.220Z,8.56
2019-03-19T14:03:20.547Z,8.57
2019-03-19T14:06:26.225Z,8.65
2019-03-19T14:09:32.979Z,8.94
2019-03-19T14:12:38.334Z,8.88
2019-03-19T14:15:43.623Z,8.85
2019-03-19T14:18:48.891Z,8.85
2019-03-19T14:21:54.166Z,8.97
2019-03-19T14:24:59.626Z,8.75
2019-03-19T14:28:05.051Z,8.95
2019-03-19T14:31:10.248Z,9.10
2019-03-19T14:34:15.541Z,8.87
2019-03-19T14:37:20.837Z,8.95
2019-03-19T14:40:26.141Z,8.73
2019-03-19T14:43:31.441Z,8.76
2019-03-19T14:46:38.346Z,8.73
2019-03-19T14:49:47.711Z,8.74
2019-03-19T14:52:50.602Z,8.59
2019-03-19T14:55:55.895Z,9.03
2019-03-19T14:59:01.206Z,9.26
2019-03-19T15:02:06.547Z,9.42
2019-03-19T15:05:12.101Z,9.54
2019-03-19T15:08:17.342Z,9.54
2019-03-19T15:11:22.705Z,9.53
2019-03-19T15:14:28.286Z,9.42
2019-03-19T15:17:33.647Z,9.40
2019-03-19T15:20:38.896Z,9.53
2019-03-19T15:23:44.206Z,9.50
2019-03-19T15:26:49.531Z,9.39
2019-03-19T15:29:54.775Z,9.63
2019-03-19T15:33:00.140Z,9.53
2019-03-19T15:36:05.538Z,9.61
2019-03-19T15:39:12.076Z,9.34
2019-03-19T15:42:17.431Z,9.37
2019-03-19T15:45:22.827Z,9.21
2019-03-19T15:48:28.137Z,9.38
2019-03-19T15:51:33.379Z,9.14
2019-03-19T15:54:38.623Z,9.20
2019-03-19T15:57:43.970Z,9.18
2019-03-19T16:00:49.283Z,9.20
2019-03-19T16:03:54.550Z,8.83
2019-03-19T16:06:59.905Z,8.85
2019-03-19T16:10:08.480Z,8.72
2019-03-19T16:13:13.926Z,8.75
2019-03-19T16:16:19.322Z,8.48
2019-03-19T16:19:24.661Z,8.44
2019-03-19T16:22:29.964Z,8.30
2019-03-19T16:25:35.303Z,8.00
2019-03-19T16:28:40.678Z,7.84
2019-03-19T16:31:50.822Z,7.59
2019-03-19T16:34:54.614Z,7.50
2019-03-19T16:38:00.079Z,7.38
2019-03-19T16:41:05.295Z,7.09
2019-03-19T16:44:10.597Z,6.97
2019-03-19T16:47:15.842Z,6.89
2019-03-19T16:50:21.202Z,6.76
2019-03-19T16:53:26.462Z,6.56
2019-03-19T16:56:31.730Z,6.39
2019-03-19T16:59:36.971Z,6.23
2019-03-19T17:02:42.255Z,6.06
2019-03-19T17:05:47.515Z,6.05
2019-03-19T17:08:52.847Z,5.84
2019-03-19T17:11:58.075Z,5.63
2019-03-19T17:15:03.359Z,5.49
2019-03-19T17:18:08.618Z,5.34
2019-03-19T17:21:14.736Z,5.16
2019-03-19T17:24:20.065Z,4.95
2019-03-19T17:27:25.362Z,4.79
2019-03-19T17:30:30.749Z,4.63
2019-03-19T17:33:36.041Z,4.49
2019-03-19T17:36:42.864Z,4.43
2019-03-19T17:39:48.251Z,4.36
2019-03-19T17:42:53.506Z,4.14
2019-03-19T17:45:58.848Z,3.97
2019-03-19T17:49:06.476Z,3.93
2019-03-19T17:52:11.940Z,3.84
2019-03-19T17:55:17.382Z,3.89
2019-03-19T17:58:22.700Z,3.85
2019-03-19T18:01:28.290Z,3.72
2019-03-19T18:04:33.545Z,3.63
2019-03-19T18:07:38.849Z,3.59
2019-03-19T18:10:44.216Z,3.53
2019-03-19T18:13:49.530Z,3.50
2019-03-19T18:16:54.949Z,3.49
2019-03-19T18:20:00.397Z,3.53
2019-03-19T18:23:05.739Z,3.58
2019-03-19T18:26:11.045Z,3.46
2019-03-19T18:29:20.103Z,3.38
2019-03-19T18:32:34.774Z,3.26
2019-03-19T18:35:32.181Z,3.25
2019-03-19T18:38:37.569Z,3.32
2019-03-19T18:41:43.050Z,3.31
2019-03-19T18:44:48.389Z,3.19
2019-03-19T18:47:53.654Z,3.15
2019-03-19T18:50:59.039Z,3.13
2019-03-19T18:54:04.315Z,3.09
2019-03-19T18:57:09.659Z,3.14
2019-03-19T19:00:16.054Z,3.05
2019-03-19T19:03:22.585Z,3.16
2019-03-19T19:06:28.853Z,3.12
2019-03-19T19:09:34.182Z,3.23
2019-03-19T19:12:39.551Z,3.33
2019-03-19T19:15:44.890Z,3.42
2019-03-19T19:18:50.229Z,3.33
2019-03-19T19:21:56.725Z,3.19
2019-03-19T19:25:18.966Z,3.28
2019-03-19T19:28:24.501Z,3.23
2019-03-19T19:31:32.038Z,3.23
2019-03-19T19:34:37.319Z,3.21
2019-03-19T19:37:42.732Z,3.06
2019-03-19T19:40:48.055Z,3.04
2019-03-19T19:43:53.514Z,3.02
2019-03-19T19:46:59.011Z,3.01
2019-03-19T19:50:05.764Z,3.05
2019-03-19T19:53:12.154Z,2.96
2019-03-19T19:56:17.666Z,2.95
2019-03-19T19:59:24.224Z,2.95
2019-03-19T20:02:29.535Z,2.80
2019-03-19T20:05:35.060Z,3.01
2019-03-19T20:08:40.461Z,2.86
2019-03-19T20:11:47.804Z,3.03
2019-03-19T20:14:53.326Z,3.01
2019-03-19T20:17:58.726Z,2.91
2019-03-19T20:21:04.015Z,2.97
2019-03-19T20:24:10.743Z,3.08
2019-03-19T20:27:16.109Z,2.97
2019-03-19T20:30:21.459Z,3.15
2019-03-19T20:33:28.428Z,3.30
2019-03-19T20:36:33.750Z,3.16
2019-03-19T20:39:39.258Z,3.11
2019-03-19T20:42:44.629Z,3.11
2019-03-19T20:45:49.951Z,3.03
2019-03-19T20:48:55.222Z,3.15
2019-03-19T20:52:00.500Z,3.27
2019-03-19T20:55:05.878Z,3.35
2019-03-19T20:58:11.233Z,3.19
2019-03-19T21:01:16.509Z,3.05
2019-03-19T21:04:22.751Z,3.00
2019-03-19T21:07:28.146Z,2.96
2019-03-19T21:10:33.468Z,2.98
2019-03-19T21:13:38.720Z,3.15
2019-03-19T21:16:46.765Z,3.01
2019-03-19T21:19:52.156Z,2.95
2019-03-19T21:22:57.489Z,2.89
2019-03-19T21:26:02.848Z,3.25
2019-03-19T21:29:08.220Z,3.05
2019-03-19T21:32:14.400Z,2.91
2019-03-19T21:35:22.882Z,2.88
2019-03-19T21:38:28.365Z,2.80
2019-03-19T21:41:33.614Z,2.67
2019-03-19T21:44:38.948Z,2.73
2019-03-19T21:47:45.431Z,2.81
2019-03-19T21:50:50.779Z,2.73
2019-03-19T21:53:56.188Z,2.59
2019-03-19T21:57:01.668Z,2.66
2019-03-19T22:00:13.209Z,2.61
2019-03-19T22:03:18.499Z,2.64
2019-03-19T22:06:23.839Z,2.71
2019-03-19T22:09:29.105Z,2.74
2019-03-19T22:12:34.469Z,2.58
2019-03-19T22:15:41.364Z,2.58
2019-03-19T22:18:46.692Z,2.62
2019-03-19T22:21:52.051Z,2.64
2019-03-19T22:24:57.263Z,2.58
2019-03-19T22:28:02.600Z,2.73
2019-03-19T22:31:07.910Z,2.71
2019-03-19T22:34:14.255Z,2.74
2019-03-19T22:37:19.734Z,2.72
2019-03-19T22:40:26.018Z,2.70
2019-03-19T22:43:40.140Z,2.57
2019-03-19T22:46:45.443Z,2.38
2019-03-19T22:49:50.729Z,2.47
2019-03-19T22:52:56.002Z,2.52
2019-03-19T22:56:03.401Z,2.65
2019-03-19T22:59:08.647Z,2.45
2019-03-19T23:02:13.895Z,2.29
2019-03-19T23:05:19.144Z,2.43
2019-03-19T23:08:24.504Z,2.42
2019-03-19T23:11:29.794Z,2.35
2019-03-19T23:14:35.139Z,2.46
2019-03-19T23:17:51.818Z,2.59
2019-03-19T23:20:47.551Z,2.44
2019-03-19T23:23:55.057Z,2.35
2019-03-19T23:27:00.288Z,2.30
2019-03-19T23:30:06.472Z,2.47
2019-03-19T23:33:11.838Z,2.56
2019-03-19T23:36:17.074Z,2.47
2019-03-19T23:39:23.827Z,2.44
2019-03-19T23:42:29.119Z,2.36
2019-03-19T23:45:34.424Z,2.37
2019-03-19T23:48:39.771Z,2.17
2019-03-19T23:51:45.049Z,2.19
2019-03-19T23:54:50.317Z,2.08
2019-03-19T23:57:55.584Z,1.92
